OIFS  Shahrekord Airport

Add Bookmark

Shahrekord, Iran

Status IATA
Operational CQD
Latitude Longitude
32° 17' 49" N 50° 50' 31" E
32.297199 50.842201
Local (DST + 5) UTC (GMT + 4)
Mar 1, 2015 10:19 Mar 1, 2015 06:49
Sunrise-Sunset Local UTC
Begin Civil Twilight 06:08 02:38
Sunrise 06:32 03:02
Sunset 06:05 14:35
End Civil Twilight 06:29 14:59

Current Weather

METAR Observed VFR
OIFS 010600Z 15004KT CAVOK 04/M07 Q1018 Sun, Mar 1, 2015 @ 06:00 UTC
(49 Minutes ago)
Visual Flight Rules
Wind Visibility Clouds Conditions
150° at 4 knots (7 kph) 10 km or more
  • Clear skies
  • No significant weather
Temperatures Readings Precipitation
Current Temp 4°C (39°F)
Dewpoint -7°C (19°F)
Humidity 45%
Altimeter 30.06"Hg
Sea Level Pressure 1018mb
Field Elevation 6817.59'
None Recorded

Additional weather within a 185.2km radius of OIFS

Map ICAO Location
OIFM 108km E (062°)

24 Hour Weather History

Loading
-

24 Hour Weather Graphs

Loading
-

CheckWX.com is intended as a tool to help pilots better visualize weather data. It is not intended as a substitute for an official weather briefing obtained from a Flight Service Station. CheckWX.com does not meet the FAA requirements for an official pre-flight weather briefing. Therefore, it's important that pilots still call and obtain an official FSS pre-flight weather briefing.